Terminal Aerodrome Forecast
Issued by NWS Omaha/Valley, NE

Home | Current Version | Previous Version | Text Only | Print | Product List | Glossary On
Versions: 1 2 3 4 5 6 7 8 9 10 11 12 13 14 15 16 17 18
000
FTUS43 KOAX 230810 AAA
TAFLNK
TAF AMD
KLNK 230810Z 2308/2406 14014G22KT P6SM BKN080 WS015/17050KT
      TEMPO 2310/2314 5SM TSRA BKN030CB
     FM231400 16021G28KT P6SM SCT040 BKN250
     FM240000 15020G30KT P6SM OVC100
      TEMPO 2400/2404 4SM TSRA BKN030CB
     FM240400 35015KT 4SM TSRA OVC030CB=

USA.gov is the U.S. government's official web portal to all federal, state and local government web resources and services.